sensor_id;sensor_type;location;lat;lon;timestamp;P1;durP1;ratioP1;P2;durP2;ratioP2
18251;SDS011;26917;52.328;20.878;2022-09-13T00:00:06;16.77;;;12.10;;
18251;SDS011;26917;52.328;20.878;2022-09-13T00:02:35;17.45;;;12.35;;
18251;SDS011;26917;52.328;20.878;2022-09-13T00:05:05;15.82;;;11.60;;
18251;SDS011;26917;52.328;20.878;2022-09-13T00:07:35;20.85;;;12.35;;
18251;SDS011;26917;52.328;20.878;2022-09-13T00:10:08;17.85;;;11.48;;
18251;SDS011;26917;52.328;20.878;2022-09-13T00:12:43;18.35;;;11.65;;
18251;SDS011;26917;52.328;20.878;2022-09-13T00:15:33;17.85;;;12.23;;
18251;SDS011;26917;52.328;20.878;2022-09-13T00:18:04;16.05;;;11.35;;
18251;SDS011;26917;52.328;20.878;2022-09-13T00:20:33;20.60;;;13.32;;
18251;SDS011;26917;52.328;20.878;2022-09-13T00:23:06;17.98;;;12.63;;
18251;SDS011;26917;52.328;20.878;2022-09-13T00:25:36;17.45;;;11.23;;
18251;SDS011;26917;52.328;20.878;2022-09-13T00:28:07;15.88;;;10.85;;
18251;SDS011;26917;52.328;20.878;2022-09-13T00:30:40;18.83;;;12.70;;
18251;SDS011;26917;52.328;20.878;2022-09-13T00:33:11;21.25;;;11.98;;
18251;SDS011;26917;52.328;20.878;2022-09-13T00:35:42;21.30;;;11.18;;
18251;SDS011;26917;52.328;20.878;2022-09-13T00:38:16;18.90;;;11.65;;
18251;SDS011;26917;52.328;20.878;2022-09-13T00:40:44;16.77;;;11.52;;
18251;SDS011;26917;52.328;20.878;2022-09-13T00:43:18;15.52;;;11.85;;
18251;SDS011;26917;52.328;20.878;2022-09-13T00:46:06;18.05;;;12.10;;
18251;SDS011;26917;52.328;20.878;2022-09-13T00:48:36;23.30;;;11.80;;
18251;SDS011;26917;52.328;20.878;2022-09-13T00:51:42;16.00;;;10.80;;
18251;SDS011;26917;52.328;20.878;2022-09-13T00:54:38;20.58;;;11.23;;
18251;SDS011;26917;52.328;20.878;2022-09-13T00:57:40;22.10;;;12.40;;
18251;SDS011;26917;52.328;20.878;2022-09-13T01:00:23;37.45;;;12.63;;
18251;SDS011;26917;52.328;20.878;2022-09-13T01:02:52;19.48;;;12.70;;
18251;SDS011;26917;52.328;20.878;2022-09-13T01:05:32;23.55;;;12.25;;
18251;SDS011;26917;52.328;20.878;2022-09-13T01:08:20;24.80;;;12.48;;
18251;SDS011;26917;52.328;20.878;2022-09-13T01:14:06;23.90;;;12.52;;
18251;SDS011;26917;52.328;20.878;2022-09-13T01:16:58;20.85;;;12.25;;
18251;SDS011;26917;52.328;20.878;2022-09-13T01:19:55;21.67;;;12.02;;
18251;SDS011;26917;52.328;20.878;2022-09-13T01:23:11;19.08;;;12.07;;
18251;SDS011;26917;52.328;20.878;2022-09-13T01:26:38;22.35;;;12.82;;
18251;SDS011;26917;52.328;20.878;2022-09-13T01:46:34;17.27;;;11.48;;
18251;SDS011;26917;52.328;20.878;2022-09-13T02:10:02;21.60;;;11.98;;
18251;SDS011;26917;52.328;20.878;2022-09-13T05:58:58;27.52;;;14.80;;
18251;SDS011;26917;52.328;20.878;2022-09-13T06:05:32;22.23;;;14.85;;
18251;SDS011;26917;52.328;20.878;2022-09-13T06:09:54;28.92;;;16.17;;
18251;SDS011;26917;52.328;20.878;2022-09-13T06:12:32;29.05;;;18.17;;
18251;SDS011;26917;52.328;20.878;2022-09-13T06:18:45;29.60;;;19.05;;
18251;SDS011;26917;52.328;20.878;2022-09-13T06:21:15;26.38;;;16.75;;
18251;SDS011;26917;52.328;20.878;2022-09-13T06:23:51;32.60;;;18.25;;
18251;SDS011;26917;52.328;20.878;2022-09-13T06:26:23;33.67;;;18.83;;
18251;SDS011;26917;52.328;20.878;2022-09-13T06:28:56;29.35;;;18.25;;
18251;SDS011;26917;52.328;20.878;2022-09-13T06:31:26;23.85;;;15.90;;
18251;SDS011;26917;52.328;20.878;2022-09-13T06:33:57;26.85;;;16.00;;
18251;SDS011;26917;52.328;20.878;2022-09-13T06:36:28;30.95;;;18.95;;
18251;SDS011;26917;52.328;20.878;2022-09-13T06:38:57;30.30;;;18.05;;
18251;SDS011;26917;52.328;20.878;2022-09-13T06:41:27;44.20;;;25.08;;
18251;SDS011;26917;52.328;20.878;2022-09-13T06:44:04;35.33;;;22.80;;
18251;SDS011;26917;52.328;20.878;2022-09-13T06:46:34;40.95;;;25.70;;
18251;SDS011;26917;52.328;20.878;2022-09-13T06:49:09;38.03;;;23.05;;
18251;SDS011;26917;52.328;20.878;2022-09-13T06:51:38;30.00;;;20.67;;
18251;SDS011;26917;52.328;20.878;2022-09-13T06:54:40;23.92;;;15.85;;
18251;SDS011;26917;52.328;20.878;2022-09-13T06:57:09;23.52;;;15.52;;
18251;SDS011;26917;52.328;20.878;2022-09-13T06:59:39;24.90;;;15.77;;
18251;SDS011;26917;52.328;20.878;2022-09-13T07:02:09;19.35;;;12.75;;
18251;SDS011;26917;52.328;20.878;2022-09-13T07:05:04;19.45;;;13.30;;
18251;SDS011;26917;52.328;20.878;2022-09-13T07:07:49;19.02;;;12.07;;
18251;SDS011;26917;52.328;20.878;2022-09-13T07:10:22;18.90;;;14.45;;
18251;SDS011;26917;52.328;20.878;2022-09-13T07:12:52;29.20;;;14.90;;
18251;SDS011;26917;52.328;20.878;2022-09-13T07:15:25;25.48;;;14.73;;
18251;SDS011;26917;52.328;20.878;2022-09-13T07:18:09;23.88;;;15.48;;
18251;SDS011;26917;52.328;20.878;2022-09-13T07:20:40;27.17;;;17.25;;
18251;SDS011;26917;52.328;20.878;2022-09-13T07:23:10;31.77;;;19.58;;
18251;SDS011;26917;52.328;20.878;2022-09-13T07:25:41;27.52;;;17.85;;
18251;SDS011;26917;52.328;20.878;2022-09-13T07:28:12;25.60;;;16.65;;
18251;SDS011;26917;52.328;20.878;2022-09-13T07:30:44;26.45;;;16.75;;
18251;SDS011;26917;52.328;20.878;2022-09-13T07:33:12;24.17;;;15.27;;
18251;SDS011;26917;52.328;20.878;2022-09-13T07:38:38;17.98;;;12.27;;
18251;SDS011;26917;52.328;20.878;2022-09-13T07:41:10;19.90;;;12.45;;
18251;SDS011;26917;52.328;20.878;2022-09-13T07:43:40;19.85;;;12.00;;
18251;SDS011;26917;52.328;20.878;2022-09-13T07:46:10;18.48;;;10.57;;
18251;SDS011;26917;52.328;20.878;2022-09-13T07:48:40;17.40;;;9.38;;
18251;SDS011;26917;52.328;20.878;2022-09-13T07:51:12;14.45;;;8.73;;
18251;SDS011;26917;52.328;20.878;2022-09-13T07:53:42;13.80;;;8.63;;
18251;SDS011;26917;52.328;20.878;2022-09-13T07:56:14;10.60;;;8.43;;
18251;SDS011;26917;52.328;20.878;2022-09-13T07:58:58;11.60;;;7.63;;
18251;SDS011;26917;52.328;20.878;2022-09-13T08:01:45;10.20;;;6.78;;
18251;SDS011;26917;52.328;20.878;2022-09-13T08:04:38;12.48;;;5.63;;
18251;SDS011;26917;52.328;20.878;2022-09-13T08:07:09;12.07;;;5.20;;
18251;SDS011;26917;52.328;20.878;2022-09-13T08:09:45;9.02;;;4.10;;
18251;SDS011;26917;52.328;20.878;2022-09-13T08:12:13;8.25;;;4.13;;
18251;SDS011;26917;52.328;20.878;2022-09-13T08:14:51;6.25;;;4.85;;
18251;SDS011;26917;52.328;20.878;2022-09-13T08:17:49;5.10;;;4.22;;
18251;SDS011;26917;52.328;20.878;2022-09-13T08:31:05;7.82;;;4.18;;
18251;SDS011;26917;52.328;20.878;2022-09-13T08:33:59;6.45;;;3.80;;
18251;SDS011;26917;52.328;20.878;2022-09-13T08:37:34;5.40;;;3.67;;
18251;SDS011;26917;52.328;20.878;2022-09-13T08:54:01;5.05;;;2.50;;
18251;SDS011;26917;52.328;20.878;2022-09-13T08:56:56;7.03;;;1.92;;
18251;SDS011;26917;52.328;20.878;2022-09-13T09:00:16;3.38;;;2.47;;
18251;SDS011;26917;52.328;20.878;2022-09-13T09:03:03;8.65;;;2.78;;
18251;SDS011;26917;52.328;20.878;2022-09-13T09:21:12;2.20;;;2.00;;
18251;SDS011;26917;52.328;20.878;2022-09-13T09:25:13;5.55;;;2.70;;
18251;SDS011;26917;52.328;20.878;2022-09-13T09:30:40;7.85;;;2.72;;
18251;SDS011;26917;52.328;20.878;2022-09-13T09:33:21;2.75;;;2.55;;
18251;SDS011;26917;52.328;20.878;2022-09-13T09:40:11;3.58;;;2.63;;
18251;SDS011;26917;52.328;20.878;2022-09-13T09:46:23;2.85;;;2.28;;
18251;SDS011;26917;52.328;20.878;2022-09-13T09:49:00;7.90;;;2.65;;
18251;SDS011;26917;52.328;20.878;2022-09-13T09:52:08;4.15;;;2.28;;
18251;SDS011;26917;52.328;20.878;2022-09-13T09:58:01;8.48;;;2.45;;
18251;SDS011;26917;52.328;20.878;2022-09-13T10:00:36;4.78;;;2.20;;
18251;SDS011;26917;52.328;20.878;2022-09-13T10:04:03;3.63;;;2.40;;
18251;SDS011;26917;52.328;20.878;2022-09-13T10:06:42;5.20;;;2.58;;
18251;SDS011;26917;52.328;20.878;2022-09-13T10:22:26;4.13;;;2.40;;
18251;SDS011;26917;52.328;20.878;2022-09-13T10:25:13;3.65;;;2.55;;
18251;SDS011;26917;52.328;20.878;2022-09-13T10:32:17;4.05;;;2.25;;
18251;SDS011;26917;52.328;20.878;2022-09-13T10:34:58;5.50;;;2.20;;
18251;SDS011;26917;52.328;20.878;2022-09-13T10:37:55;4.18;;;2.30;;
18251;SDS011;26917;52.328;20.878;2022-09-13T10:41:19;3.15;;;2.20;;
18251;SDS011;26917;52.328;20.878;2022-09-13T10:47:17;2.33;;;1.95;;
18251;SDS011;26917;52.328;20.878;2022-09-13T10:52:51;4.78;;;2.60;;
18251;SDS011;26917;52.328;20.878;2022-09-13T10:56:18;3.20;;;2.55;;
18251;SDS011;26917;52.328;20.878;2022-09-13T11:03:11;5.38;;;2.55;;
18251;SDS011;26917;52.328;20.878;2022-09-13T11:06:17;3.97;;;2.22;;
18251;SDS011;26917;52.328;20.878;2022-09-13T11:08:58;3.45;;;2.28;;
18251;SDS011;26917;52.328;20.878;2022-09-13T11:12:43;2.97;;;2.20;;
18251;SDS011;26917;52.328;20.878;2022-09-13T11:15:40;2.63;;;1.90;;
18251;SDS011;26917;52.328;20.878;2022-09-13T11:18:42;5.00;;;2.38;;
18251;SDS011;26917;52.328;20.878;2022-09-13T11:21:51;2.85;;;2.30;;
18251;SDS011;26917;52.328;20.878;2022-09-13T11:28:32;3.47;;;2.22;;
18251;SDS011;26917;52.328;20.878;2022-09-13T11:31:32;4.40;;;2.50;;
18251;SDS011;26917;52.328;20.878;2022-09-13T11:37:58;3.00;;;2.00;;
18251;SDS011;26917;52.328;20.878;2022-09-13T11:40:37;6.05;;;2.85;;
18251;SDS011;26917;52.328;20.878;2022-09-13T11:43:32;5.05;;;2.28;;
18251;SDS011;26917;52.328;20.878;2022-09-13T11:46:50;4.10;;;2.33;;
18251;SDS011;26917;52.328;20.878;2022-09-13T11:53:55;2.72;;;2.35;;
18251;SDS011;26917;52.328;20.878;2022-09-13T11:56:45;3.42;;;2.75;;
18251;SDS011;26917;52.328;20.878;2022-09-13T11:59:32;5.13;;;2.92;;
18251;SDS011;26917;52.328;20.878;2022-09-13T12:03:09;4.18;;;2.78;;
18251;SDS011;26917;52.328;20.878;2022-09-13T12:05:44;5.13;;;2.58;;
18251;SDS011;26917;52.328;20.878;2022-09-13T12:08:17;3.53;;;2.95;;
18251;SDS011;26917;52.328;20.878;2022-09-13T12:10:55;4.15;;;2.55;;
18251;SDS011;26917;52.328;20.878;2022-09-13T12:13:45;4.15;;;3.28;;
18251;SDS011;26917;52.328;20.878;2022-09-13T12:17:08;5.55;;;2.70;;
18251;SDS011;26917;52.328;20.878;2022-09-13T12:19:50;2.72;;;2.53;;
18251;SDS011;26917;52.328;20.878;2022-09-13T12:22:29;6.60;;;2.50;;
18251;SDS011;26917;52.328;20.878;2022-09-13T12:25:02;6.30;;;2.85;;
18251;SDS011;26917;52.328;20.878;2022-09-13T12:27:33;2.70;;;2.40;;
18251;SDS011;26917;52.328;20.878;2022-09-13T12:30:12;5.47;;;2.95;;
18251;SDS011;26917;52.328;20.878;2022-09-13T12:35:35;4.72;;;3.10;;
18251;SDS011;26917;52.328;20.878;2022-09-13T12:38:15;3.85;;;2.63;;
18251;SDS011;26917;52.328;20.878;2022-09-13T12:41:00;5.55;;;2.60;;
18251;SDS011;26917;52.328;20.878;2022-09-13T12:46:44;2.97;;;2.55;;
18251;SDS011;26917;52.328;20.878;2022-09-13T12:49:31;4.78;;;2.72;;
18251;SDS011;26917;52.328;20.878;2022-09-13T12:52:26;3.17;;;2.35;;
18251;SDS011;26917;52.328;20.878;2022-09-13T12:55:08;6.68;;;3.30;;
18251;SDS011;26917;52.328;20.878;2022-09-13T12:58:21;7.30;;;2.95;;
18251;SDS011;26917;52.328;20.878;2022-09-13T13:01:19;3.92;;;2.75;;
18251;SDS011;26917;52.328;20.878;2022-09-13T13:03:50;3.63;;;3.00;;
18251;SDS011;26917;52.328;20.878;2022-09-13T13:06:28;4.07;;;2.55;;
18251;SDS011;26917;52.328;20.878;2022-09-13T13:09:01;3.17;;;2.47;;
18251;SDS011;26917;52.328;20.878;2022-09-13T13:11:42;3.50;;;2.90;;
18251;SDS011;26917;52.328;20.878;2022-09-13T13:23:17;4.35;;;3.03;;
18251;SDS011;26917;52.328;20.878;2022-09-13T13:25:54;3.78;;;3.10;;
18251;SDS011;26917;52.328;20.878;2022-09-13T13:28:51;5.72;;;2.70;;
18251;SDS011;26917;52.328;20.878;2022-09-13T13:31:36;3.72;;;2.90;;
18251;SDS011;26917;52.328;20.878;2022-09-13T13:43:27;7.88;;;3.45;;
18251;SDS011;26917;52.328;20.878;2022-09-13T13:46:22;5.07;;;3.38;;
18251;SDS011;26917;52.328;20.878;2022-09-13T13:55:21;3.65;;;3.20;;
18251;SDS011;26917;52.328;20.878;2022-09-13T13:57:59;5.97;;;3.45;;
18251;SDS011;26917;52.328;20.878;2022-09-13T14:00:30;3.92;;;3.22;;
18251;SDS011;26917;52.328;20.878;2022-09-13T14:03:05;4.40;;;3.33;;
18251;SDS011;26917;52.328;20.878;2022-09-13T14:05:42;5.43;;;3.58;;
18251;SDS011;26917;52.328;20.878;2022-09-13T14:08:30;4.72;;;3.55;;
18251;SDS011;26917;52.328;20.878;2022-09-13T14:11:35;5.63;;;3.80;;
18251;SDS011;26917;52.328;20.878;2022-09-13T14:14:23;4.60;;;3.72;;
18251;SDS011;26917;52.328;20.878;2022-09-13T14:20:56;5.38;;;4.22;;
18251;SDS011;26917;52.328;20.878;2022-09-13T14:23:28;5.13;;;3.88;;
18251;SDS011;26917;52.328;20.878;2022-09-13T14:25:58;9.27;;;3.90;;
18251;SDS011;26917;52.328;20.878;2022-09-13T14:28:30;5.60;;;3.20;;
18251;SDS011;26917;52.328;20.878;2022-09-13T14:30:59;7.78;;;3.28;;
18251;SDS011;26917;52.328;20.878;2022-09-13T14:33:28;3.78;;;3.03;;
18251;SDS011;26917;52.328;20.878;2022-09-13T14:36:02;4.43;;;3.60;;
18251;SDS011;26917;52.328;20.878;2022-09-13T14:38:32;6.03;;;3.80;;
18251;SDS011;26917;52.328;20.878;2022-09-13T14:41:11;3.90;;;2.97;;
18251;SDS011;26917;52.328;20.878;2022-09-13T14:49:40;7.63;;;3.58;;
18251;SDS011;26917;52.328;20.878;2022-09-13T14:52:16;7.35;;;3.83;;
18251;SDS011;26917;52.328;20.878;2022-09-13T14:54:51;8.65;;;3.47;;
18251;SDS011;26917;52.328;20.878;2022-09-13T14:57:26;7.38;;;3.30;;
18251;SDS011;26917;52.328;20.878;2022-09-13T15:00:00;8.30;;;4.05;;
18251;SDS011;26917;52.328;20.878;2022-09-13T15:05:19;5.03;;;3.60;;
18251;SDS011;26917;52.328;20.878;2022-09-13T15:07:49;6.25;;;3.78;;
18251;SDS011;26917;52.328;20.878;2022-09-13T15:10:19;8.07;;;3.70;;
18251;SDS011;26917;52.328;20.878;2022-09-13T15:12:53;7.30;;;3.45;;
18251;SDS011;26917;52.328;20.878;2022-09-13T15:15:32;5.13;;;3.90;;
18251;SDS011;26917;52.328;20.878;2022-09-13T15:18:04;10.45;;;4.05;;
18251;SDS011;26917;52.328;20.878;2022-09-13T15:20:50;11.48;;;4.30;;
18251;SDS011;26917;52.328;20.878;2022-09-13T15:23:21;6.82;;;4.03;;
18251;SDS011;26917;52.328;20.878;2022-09-13T15:25:54;6.35;;;3.67;;
18251;SDS011;26917;52.328;20.878;2022-09-13T15:28:27;8.60;;;4.05;;
18251;SDS011;26917;52.328;20.878;2022-09-13T15:30:58;7.97;;;4.15;;
18251;SDS011;26917;52.328;20.878;2022-09-13T15:33:30;5.95;;;4.30;;
18251;SDS011;26917;52.328;20.878;2022-09-13T15:36:24;6.93;;;4.10;;
18251;SDS011;26917;52.328;20.878;2022-09-13T15:38:57;10.13;;;4.25;;
18251;SDS011;26917;52.328;20.878;2022-09-13T15:41:28;5.20;;;4.32;;
18251;SDS011;26917;52.328;20.878;2022-09-13T15:43:58;6.55;;;4.20;;
18251;SDS011;26917;52.328;20.878;2022-09-13T15:46:27;7.25;;;3.88;;
18251;SDS011;26917;52.328;20.878;2022-09-13T15:51:42;6.15;;;3.90;;
18251;SDS011;26917;52.328;20.878;2022-09-13T15:54:12;6.03;;;4.35;;
18251;SDS011;26917;52.328;20.878;2022-09-13T15:56:44;5.68;;;4.50;;
18251;SDS011;26917;52.328;20.878;2022-09-13T15:59:16;6.63;;;4.50;;
18251;SDS011;26917;52.328;20.878;2022-09-13T16:01:50;7.53;;;4.22;;
18251;SDS011;26917;52.328;20.878;2022-09-13T16:04:21;10.25;;;4.10;;
18251;SDS011;26917;52.328;20.878;2022-09-13T16:06:49;6.60;;;4.35;;
18251;SDS011;26917;52.328;20.878;2022-09-13T16:09:18;5.18;;;4.45;;
18251;SDS011;26917;52.328;20.878;2022-09-13T16:11:48;8.90;;;4.53;;
18251;SDS011;26917;52.328;20.878;2022-09-13T16:14:18;5.20;;;4.28;;
18251;SDS011;26917;52.328;20.878;2022-09-13T16:16:47;7.50;;;4.70;;
18251;SDS011;26917;52.328;20.878;2022-09-13T16:19:17;7.32;;;4.55;;
18251;SDS011;26917;52.328;20.878;2022-09-13T16:21:49;6.50;;;4.65;;
18251;SDS011;26917;52.328;20.878;2022-09-13T16:24:18;7.47;;;5.00;;
18251;SDS011;26917;52.328;20.878;2022-09-13T16:26:46;8.35;;;5.13;;
18251;SDS011;26917;52.328;20.878;2022-09-13T16:29:15;5.35;;;4.85;;
18251;SDS011;26917;52.328;20.878;2022-09-13T16:31:43;7.20;;;5.05;;
18251;SDS011;26917;52.328;20.878;2022-09-13T16:34:12;6.82;;;5.00;;
18251;SDS011;26917;52.328;20.878;2022-09-13T16:36:40;7.32;;;5.60;;
18251;SDS011;26917;52.328;20.878;2022-09-13T16:39:10;7.65;;;5.32;;
18251;SDS011;26917;52.328;20.878;2022-09-13T16:41:39;8.73;;;4.95;;
18251;SDS011;26917;52.328;20.878;2022-09-13T16:44:07;11.98;;;4.85;;
18251;SDS011;26917;52.328;20.878;2022-09-13T16:46:36;7.22;;;5.72;;
18251;SDS011;26917;52.328;20.878;2022-09-13T16:49:05;10.95;;;6.78;;
18251;SDS011;26917;52.328;20.878;2022-09-13T16:51:34;6.95;;;5.10;;
18251;SDS011;26917;52.328;20.878;2022-09-13T16:54:03;8.20;;;5.88;;
18251;SDS011;26917;52.328;20.878;2022-09-13T16:59:17;8.57;;;6.40;;
18251;SDS011;26917;52.328;20.878;2022-09-13T17:01:46;6.55;;;5.60;;
18251;SDS011;26917;52.328;20.878;2022-09-13T17:04:14;8.60;;;5.47;;
18251;SDS011;26917;52.328;20.878;2022-09-13T17:06:43;8.60;;;6.30;;
18251;SDS011;26917;52.328;20.878;2022-09-13T17:09:12;11.25;;;6.43;;
18251;SDS011;26917;52.328;20.878;2022-09-13T17:11:41;8.70;;;6.57;;
18251;SDS011;26917;52.328;20.878;2022-09-13T17:14:12;8.18;;;6.88;;
18251;SDS011;26917;52.328;20.878;2022-09-13T17:16:44;10.02;;;7.07;;
18251;SDS011;26917;52.328;20.878;2022-09-13T17:19:15;7.47;;;6.57;;
18251;SDS011;26917;52.328;20.878;2022-09-13T17:21:46;9.43;;;6.68;;
18251;SDS011;26917;52.328;20.878;2022-09-13T17:24:14;11.73;;;7.30;;
18251;SDS011;26917;52.328;20.878;2022-09-13T17:26:43;13.40;;;7.20;;
18251;SDS011;26917;52.328;20.878;2022-09-13T17:31:58;10.07;;;7.45;;
18251;SDS011;26917;52.328;20.878;2022-09-13T17:34:27;9.27;;;7.90;;
18251;SDS011;26917;52.328;20.878;2022-09-13T17:36:57;14.27;;;8.20;;
18251;SDS011;26917;52.328;20.878;2022-09-13T17:39:26;13.05;;;7.15;;
18251;SDS011;26917;52.328;20.878;2022-09-13T17:41:54;13.73;;;7.38;;
18251;SDS011;26917;52.328;20.878;2022-09-13T17:44:23;11.80;;;7.65;;
18251;SDS011;26917;52.328;20.878;2022-09-13T17:46:53;9.98;;;6.90;;
18251;SDS011;26917;52.328;20.878;2022-09-13T17:49:22;18.27;;;8.00;;
18251;SDS011;26917;52.328;20.878;2022-09-13T17:51:50;11.65;;;7.78;;
18251;SDS011;26917;52.328;20.878;2022-09-13T17:54:19;10.77;;;7.75;;
18251;SDS011;26917;52.328;20.878;2022-09-13T17:56:48;9.27;;;7.88;;
18251;SDS011;26917;52.328;20.878;2022-09-13T17:59:18;10.45;;;7.72;;
18251;SDS011;26917;52.328;20.878;2022-09-13T18:01:48;9.82;;;7.68;;
18251;SDS011;26917;52.328;20.878;2022-09-13T18:07:03;10.32;;;7.97;;
18251;SDS011;26917;52.328;20.878;2022-09-13T18:09:32;9.77;;;7.85;;
18251;SDS011;26917;52.328;20.878;2022-09-13T18:12:01;12.02;;;8.68;;
18251;SDS011;26917;52.328;20.878;2022-09-13T18:14:30;12.93;;;8.50;;
18251;SDS011;26917;52.328;20.878;2022-09-13T18:16:58;10.30;;;8.80;;
18251;SDS011;26917;52.328;20.878;2022-09-13T18:19:27;14.43;;;7.95;;
18251;SDS011;26917;52.328;20.878;2022-09-13T18:22:14;13.80;;;8.07;;
18251;SDS011;26917;52.328;20.878;2022-09-13T18:24:43;14.20;;;9.05;;
18251;SDS011;26917;52.328;20.878;2022-09-13T18:27:12;16.65;;;8.73;;
18251;SDS011;26917;52.328;20.878;2022-09-13T18:29:40;12.60;;;8.70;;
18251;SDS011;26917;52.328;20.878;2022-09-13T18:32:09;19.10;;;8.82;;
18251;SDS011;26917;52.328;20.878;2022-09-13T18:34:37;15.50;;;8.02;;
18251;SDS011;26917;52.328;20.878;2022-09-13T18:37:07;10.52;;;8.10;;
18251;SDS011;26917;52.328;20.878;2022-09-13T18:39:37;16.50;;;8.35;;
18251;SDS011;26917;52.328;20.878;2022-09-13T18:42:05;10.50;;;7.85;;
18251;SDS011;26917;52.328;20.878;2022-09-13T18:44:34;10.82;;;7.60;;
18251;SDS011;26917;52.328;20.878;2022-09-13T18:47:02;10.15;;;7.63;;
18251;SDS011;26917;52.328;20.878;2022-09-13T18:49:31;11.02;;;7.28;;
18251;SDS011;26917;52.328;20.878;2022-09-13T18:51:59;12.45;;;8.57;;
18251;SDS011;26917;52.328;20.878;2022-09-13T18:54:28;10.65;;;7.88;;
18251;SDS011;26917;52.328;20.878;2022-09-13T18:56:58;8.55;;;7.00;;
18251;SDS011;26917;52.328;20.878;2022-09-13T18:59:29;11.73;;;7.32;;
18251;SDS011;26917;52.328;20.878;2022-09-13T19:01:58;9.45;;;7.57;;
18251;SDS011;26917;52.328;20.878;2022-09-13T19:04:27;10.55;;;7.15;;
18251;SDS011;26917;52.328;20.878;2022-09-13T19:06:57;11.98;;;8.07;;
18251;SDS011;26917;52.328;20.878;2022-09-13T19:09:27;9.18;;;7.25;;
18251;SDS011;26917;52.328;20.878;2022-09-13T19:11:58;11.00;;;6.97;;
18251;SDS011;26917;52.328;20.878;2022-09-13T19:14:26;10.85;;;6.90;;
18251;SDS011;26917;52.328;20.878;2022-09-13T19:16:57;11.23;;;6.97;;
18251;SDS011;26917;52.328;20.878;2022-09-13T19:19:28;13.15;;;7.13;;
18251;SDS011;26917;52.328;20.878;2022-09-13T19:21:57;12.85;;;7.35;;
18251;SDS011;26917;52.328;20.878;2022-09-13T19:24:25;11.45;;;7.00;;
18251;SDS011;26917;52.328;20.878;2022-09-13T19:26:54;15.50;;;7.40;;
18251;SDS011;26917;52.328;20.878;2022-09-13T19:29:29;10.88;;;7.50;;
18251;SDS011;26917;52.328;20.878;2022-09-13T19:31:57;8.90;;;6.50;;
18251;SDS011;26917;52.328;20.878;2022-09-13T19:34:26;9.93;;;7.68;;
18251;SDS011;26917;52.328;20.878;2022-09-13T19:36:54;8.40;;;6.60;;
18251;SDS011;26917;52.328;20.878;2022-09-13T19:39:24;9.57;;;7.72;;
18251;SDS011;26917;52.328;20.878;2022-09-13T19:41:55;11.85;;;7.50;;
18251;SDS011;26917;52.328;20.878;2022-09-13T19:44:25;11.13;;;7.88;;
18251;SDS011;26917;52.328;20.878;2022-09-13T19:46:55;8.98;;;7.38;;
18251;SDS011;26917;52.328;20.878;2022-09-13T19:49:44;15.77;;;7.32;;
18251;SDS011;26917;52.328;20.878;2022-09-13T19:52:15;10.98;;;7.13;;
18251;SDS011;26917;52.328;20.878;2022-09-13T19:54:43;11.05;;;7.93;;
18251;SDS011;26917;52.328;20.878;2022-09-13T19:57:12;8.80;;;6.60;;
18251;SDS011;26917;52.328;20.878;2022-09-13T19:59:41;10.13;;;7.60;;
18251;SDS011;26917;52.328;20.878;2022-09-13T20:02:13;10.88;;;6.85;;
18251;SDS011;26917;52.328;20.878;2022-09-13T20:04:42;15.65;;;7.03;;
18251;SDS011;26917;52.328;20.878;2022-09-13T20:07:12;15.00;;;7.00;;
18251;SDS011;26917;52.328;20.878;2022-09-13T20:09:41;12.77;;;7.70;;
18251;SDS011;26917;52.328;20.878;2022-09-13T20:12:12;10.07;;;7.55;;
18251;SDS011;26917;52.328;20.878;2022-09-13T20:14:41;12.75;;;7.63;;
18251;SDS011;26917;52.328;20.878;2022-09-13T20:17:09;13.88;;;7.65;;
18251;SDS011;26917;52.328;20.878;2022-09-13T20:19:39;11.40;;;8.07;;
18251;SDS011;26917;52.328;20.878;2022-09-13T20:22:15;9.18;;;7.07;;
18251;SDS011;26917;52.328;20.878;2022-09-13T20:24:43;10.57;;;7.45;;
18251;SDS011;26917;52.328;20.878;2022-09-13T20:27:12;10.20;;;7.40;;
18251;SDS011;26917;52.328;20.878;2022-09-13T20:29:41;11.50;;;7.13;;
18251;SDS011;26917;52.328;20.878;2022-09-13T20:32:09;16.08;;;8.05;;
18251;SDS011;26917;52.328;20.878;2022-09-13T20:37:23;10.80;;;7.65;;
18251;SDS011;26917;52.328;20.878;2022-09-13T20:39:52;12.30;;;7.88;;
18251;SDS011;26917;52.328;20.878;2022-09-13T20:42:21;10.90;;;7.78;;
18251;SDS011;26917;52.328;20.878;2022-09-13T20:44:49;12.80;;;7.65;;
18251;SDS011;26917;52.328;20.878;2022-09-13T20:47:18;10.77;;;7.55;;
18251;SDS011;26917;52.328;20.878;2022-09-13T20:49:46;12.63;;;8.18;;
18251;SDS011;26917;52.328;20.878;2022-09-13T20:52:16;9.68;;;7.22;;
18251;SDS011;26917;52.328;20.878;2022-09-13T20:54:45;14.35;;;8.82;;
18251;SDS011;26917;52.328;20.878;2022-09-13T20:57:14;14.85;;;8.20;;
18251;SDS011;26917;52.328;20.878;2022-09-13T20:59:42;13.00;;;8.00;;
18251;SDS011;26917;52.328;20.878;2022-09-13T21:02:11;11.90;;;7.90;;
18251;SDS011;26917;52.328;20.878;2022-09-13T21:04:40;13.98;;;8.85;;
18251;SDS011;26917;52.328;20.878;2022-09-13T21:07:09;13.38;;;8.80;;
18251;SDS011;26917;52.328;20.878;2022-09-13T21:09:57;12.10;;;8.85;;
18251;SDS011;26917;52.328;20.878;2022-09-13T21:12:25;21.20;;;9.60;;
18251;SDS011;26917;52.328;20.878;2022-09-13T21:14:54;16.40;;;9.95;;
18251;SDS011;26917;52.328;20.878;2022-09-13T21:17:23;16.50;;;9.68;;
18251;SDS011;26917;52.328;20.878;2022-09-13T21:19:51;13.48;;;9.10;;
18251;SDS011;26917;52.328;20.878;2022-09-13T21:22:20;17.63;;;10.35;;
18251;SDS011;26917;52.328;20.878;2022-09-13T21:24:49;14.07;;;9.82;;
18251;SDS011;26917;52.328;20.878;2022-09-13T21:27:27;12.75;;;9.30;;
18251;SDS011;26917;52.328;20.878;2022-09-13T21:29:56;13.95;;;9.73;;
18251;SDS011;26917;52.328;20.878;2022-09-13T21:32:24;13.18;;;9.68;;
18251;SDS011;26917;52.328;20.878;2022-09-13T21:34:53;13.93;;;8.18;;
18251;SDS011;26917;52.328;20.878;2022-09-13T21:37:21;16.52;;;9.43;;
18251;SDS011;26917;52.328;20.878;2022-09-13T21:39:49;18.65;;;10.52;;
18251;SDS011;26917;52.328;20.878;2022-09-13T21:42:19;13.25;;;10.13;;
18251;SDS011;26917;52.328;20.878;2022-09-13T21:44:48;16.70;;;10.75;;
18251;SDS011;26917;52.328;20.878;2022-09-13T21:47:16;19.05;;;10.07;;
18251;SDS011;26917;52.328;20.878;2022-09-13T21:49:45;16.05;;;10.23;;
18251;SDS011;26917;52.328;20.878;2022-09-13T21:52:13;18.73;;;10.90;;
18251;SDS011;26917;52.328;20.878;2022-09-13T21:54:42;16.38;;;10.27;;
18251;SDS011;26917;52.328;20.878;2022-09-13T21:57:10;14.55;;;9.93;;
18251;SDS011;26917;52.328;20.878;2022-09-13T22:02:24;14.85;;;10.68;;
18251;SDS011;26917;52.328;20.878;2022-09-13T22:04:53;15.98;;;11.52;;
18251;SDS011;26917;52.328;20.878;2022-09-13T22:07:21;17.80;;;12.32;;
18251;SDS011;26917;52.328;20.878;2022-09-13T22:09:50;15.85;;;11.25;;
18251;SDS011;26917;52.328;20.878;2022-09-13T22:12:18;17.00;;;12.02;;
18251;SDS011;26917;52.328;20.878;2022-09-13T22:14:49;17.95;;;11.98;;
18251;SDS011;26917;52.328;20.878;2022-09-13T22:20:09;18.60;;;13.45;;
18251;SDS011;26917;52.328;20.878;2022-09-13T22:26:14;20.17;;;13.57;;
18251;SDS011;26917;52.328;20.878;2022-09-13T22:31:49;20.80;;;12.50;;
18251;SDS011;26917;52.328;20.878;2022-09-13T22:34:23;18.35;;;12.73;;
18251;SDS011;26917;52.328;20.878;2022-09-13T22:36:52;19.90;;;12.82;;
18251;SDS011;26917;52.328;20.878;2022-09-13T22:39:21;18.65;;;13.00;;